sensor_id;sensor_type;location;lat;lon;timestamp;P1;durP1;ratioP1;P2;durP2;ratioP2
64907;SDS011;64365;-1.756;110.040;2023-01-23T00:00:37;15.35;;;9.90;;
64907;SDS011;64365;-1.756;110.040;2023-01-23T00:03:06;15.63;;;9.98;;
64907;SDS011;64365;-1.756;110.040;2023-01-23T00:05:33;15.77;;;10.32;;
64907;SDS011;64365;-1.756;110.040;2023-01-23T00:07:59;21.95;;;11.48;;
64907;SDS011;64365;-1.756;110.040;2023-01-23T00:10:26;19.80;;;11.02;;
64907;SDS011;64365;-1.756;110.040;2023-01-23T00:12:54;17.42;;;9.98;;
64907;SDS011;64365;-1.756;110.040;2023-01-23T00:15:21;19.45;;;11.35;;
64907;SDS011;64365;-1.756;110.040;2023-01-23T00:17:48;21.48;;;10.45;;
64907;SDS011;64365;-1.756;110.040;2023-01-23T00:20:16;18.17;;;10.32;;
64907;SDS011;64365;-1.756;110.040;2023-01-23T00:22:43;17.85;;;10.70;;
64907;SDS011;64365;-1.756;110.040;2023-01-23T00:25:09;20.77;;;10.93;;
64907;SDS011;64365;-1.756;110.040;2023-01-23T00:27:36;22.65;;;11.18;;
64907;SDS011;64365;-1.756;110.040;2023-01-23T00:30:04;16.92;;;9.57;;
64907;SDS011;64365;-1.756;110.040;2023-01-23T00:32:31;17.83;;;9.80;;
64907;SDS011;64365;-1.756;110.040;2023-01-23T00:34:58;20.70;;;10.77;;
64907;SDS011;64365;-1.756;110.040;2023-01-23T00:37:25;20.00;;;11.60;;
64907;SDS011;64365;-1.756;110.040;2023-01-23T00:39:51;16.67;;;10.70;;
64907;SDS011;64365;-1.756;110.040;2023-01-23T00:42:18;22.17;;;10.75;;
64907;SDS011;64365;-1.756;110.040;2023-01-23T00:44:44;21.52;;;11.95;;
64907;SDS011;64365;-1.756;110.040;2023-01-23T00:47:12;20.52;;;11.30;;
64907;SDS011;64365;-1.756;110.040;2023-01-23T00:49:39;18.73;;;10.60;;
64907;SDS011;64365;-1.756;110.040;2023-01-23T00:52:05;19.35;;;10.48;;
64907;SDS011;64365;-1.756;110.040;2023-01-23T00:54:32;17.95;;;9.65;;
64907;SDS011;64365;-1.756;110.040;2023-01-23T00:56:58;21.98;;;12.55;;
64907;SDS011;64365;-1.756;110.040;2023-01-23T00:59:25;18.30;;;10.60;;
64907;SDS011;64365;-1.756;110.040;2023-01-23T01:01:52;23.42;;;11.88;;
64907;SDS011;64365;-1.756;110.040;2023-01-23T01:04:19;22.70;;;12.27;;
64907;SDS011;64365;-1.756;110.040;2023-01-23T01:06:46;25.50;;;12.27;;
64907;SDS011;64365;-1.756;110.040;2023-01-23T01:09:13;18.83;;;11.40;;
64907;SDS011;64365;-1.756;110.040;2023-01-23T01:11:39;17.40;;;11.85;;
64907;SDS011;64365;-1.756;110.040;2023-01-23T01:14:06;22.17;;;12.32;;
64907;SDS011;64365;-1.756;110.040;2023-01-23T01:16:33;20.70;;;10.45;;
64907;SDS011;64365;-1.756;110.040;2023-01-23T01:19:00;31.25;;;13.63;;
64907;SDS011;64365;-1.756;110.040;2023-01-23T01:21:28;24.98;;;13.18;;
64907;SDS011;64365;-1.756;110.040;2023-01-23T01:23:55;18.92;;;11.93;;
64907;SDS011;64365;-1.756;110.040;2023-01-23T01:26:21;19.27;;;11.43;;
64907;SDS011;64365;-1.756;110.040;2023-01-23T01:28:50;19.08;;;11.70;;
64907;SDS011;64365;-1.756;110.040;2023-01-23T01:31:16;28.67;;;12.25;;
64907;SDS011;64365;-1.756;110.040;2023-01-23T01:33:43;17.50;;;10.85;;
64907;SDS011;64365;-1.756;110.040;2023-01-23T01:36:10;19.50;;;11.35;;
64907;SDS011;64365;-1.756;110.040;2023-01-23T01:38:39;22.67;;;11.15;;
64907;SDS011;64365;-1.756;110.040;2023-01-23T01:41:06;19.63;;;10.70;;
64907;SDS011;64365;-1.756;110.040;2023-01-23T01:43:33;18.88;;;11.07;;
64907;SDS011;64365;-1.756;110.040;2023-01-23T01:48:49;24.67;;;11.95;;
64907;SDS011;64365;-1.756;110.040;2023-01-23T01:51:23;18.48;;;11.10;;
64907;SDS011;64365;-1.756;110.040;2023-01-23T01:53:59;19.02;;;11.60;;
64907;SDS011;64365;-1.756;110.040;2023-01-23T01:56:30;17.30;;;10.57;;
64907;SDS011;64365;-1.756;110.040;2023-01-23T01:58:59;22.83;;;11.77;;
64907;SDS011;64365;-1.756;110.040;2023-01-23T02:01:27;21.40;;;11.45;;
64907;SDS011;64365;-1.756;110.040;2023-01-23T02:03:53;20.55;;;11.00;;
64907;SDS011;64365;-1.756;110.040;2023-01-23T02:06:20;17.20;;;11.15;;
64907;SDS011;64365;-1.756;110.040;2023-01-23T02:08:49;18.08;;;10.20;;
64907;SDS011;64365;-1.756;110.040;2023-01-23T02:11:23;19.48;;;10.95;;
64907;SDS011;64365;-1.756;110.040;2023-01-23T02:13:50;14.95;;;9.85;;
64907;SDS011;64365;-1.756;110.040;2023-01-23T02:16:19;19.63;;;12.27;;
64907;SDS011;64365;-1.756;110.040;2023-01-23T02:18:48;20.77;;;11.20;;
64907;SDS011;64365;-1.756;110.040;2023-01-23T02:21:20;19.42;;;11.10;;
64907;SDS011;64365;-1.756;110.040;2023-01-23T02:23:52;18.77;;;11.73;;
64907;SDS011;64365;-1.756;110.040;2023-01-23T02:26:28;18.55;;;11.23;;
64907;SDS011;64365;-1.756;110.040;2023-01-23T02:28:57;20.25;;;10.68;;
64907;SDS011;64365;-1.756;110.040;2023-01-23T02:31:24;19.00;;;11.20;;
64907;SDS011;64365;-1.756;110.040;2023-01-23T02:33:51;16.33;;;10.93;;
64907;SDS011;64365;-1.756;110.040;2023-01-23T02:36:20;22.65;;;11.38;;
64907;SDS011;64365;-1.756;110.040;2023-01-23T02:38:50;22.15;;;11.43;;
64907;SDS011;64365;-1.756;110.040;2023-01-23T02:41:22;19.52;;;11.45;;
64907;SDS011;64365;-1.756;110.040;2023-01-23T02:43:54;17.65;;;10.48;;
64907;SDS011;64365;-1.756;110.040;2023-01-23T02:46:23;19.77;;;11.77;;
64907;SDS011;64365;-1.756;110.040;2023-01-23T02:48:50;17.77;;;10.95;;
64907;SDS011;64365;-1.756;110.040;2023-01-23T02:51:17;20.75;;;11.18;;
64907;SDS011;64365;-1.756;110.040;2023-01-23T02:53:44;23.05;;;11.02;;
64907;SDS011;64365;-1.756;110.040;2023-01-23T02:56:11;17.42;;;11.23;;
64907;SDS011;64365;-1.756;110.040;2023-01-23T02:58:38;23.40;;;12.10;;
64907;SDS011;64365;-1.756;110.040;2023-01-23T03:01:23;17.15;;;10.68;;
64907;SDS011;64365;-1.756;110.040;2023-01-23T03:03:51;21.67;;;11.02;;
64907;SDS011;64365;-1.756;110.040;2023-01-23T03:06:19;29.95;;;12.73;;
64907;SDS011;64365;-1.756;110.040;2023-01-23T03:08:46;19.98;;;11.32;;
64907;SDS011;64365;-1.756;110.040;2023-01-23T03:11:14;19.95;;;10.40;;
64907;SDS011;64365;-1.756;110.040;2023-01-23T03:13:42;17.88;;;11.43;;
64907;SDS011;64365;-1.756;110.040;2023-01-23T03:16:10;21.58;;;11.07;;
64907;SDS011;64365;-1.756;110.040;2023-01-23T03:18:37;17.88;;;11.30;;
64907;SDS011;64365;-1.756;110.040;2023-01-23T03:21:04;19.35;;;11.40;;
64907;SDS011;64365;-1.756;110.040;2023-01-23T03:23:32;18.50;;;11.60;;
64907;SDS011;64365;-1.756;110.040;2023-01-23T03:25:59;21.02;;;11.23;;
64907;SDS011;64365;-1.756;110.040;2023-01-23T03:28:26;20.65;;;11.43;;
64907;SDS011;64365;-1.756;110.040;2023-01-23T03:31:12;19.20;;;12.02;;
64907;SDS011;64365;-1.756;110.040;2023-01-23T03:33:40;19.52;;;11.15;;
64907;SDS011;64365;-1.756;110.040;2023-01-23T03:36:08;18.67;;;11.13;;
64907;SDS011;64365;-1.756;110.040;2023-01-23T03:38:35;20.45;;;10.57;;
64907;SDS011;64365;-1.756;110.040;2023-01-23T03:41:02;20.63;;;11.85;;
64907;SDS011;64365;-1.756;110.040;2023-01-23T03:43:47;22.45;;;12.52;;
64907;SDS011;64365;-1.756;110.040;2023-01-23T03:46:13;19.83;;;12.48;;
64907;SDS011;64365;-1.756;110.040;2023-01-23T03:48:41;19.20;;;10.93;;
64907;SDS011;64365;-1.756;110.040;2023-01-23T03:51:08;16.42;;;10.38;;
64907;SDS011;64365;-1.756;110.040;2023-01-23T03:53:34;19.20;;;11.65;;
64907;SDS011;64365;-1.756;110.040;2023-01-23T03:56:01;18.50;;;10.20;;
64907;SDS011;64365;-1.756;110.040;2023-01-23T03:58:28;15.82;;;10.70;;
64907;SDS011;64365;-1.756;110.040;2023-01-23T04:00:54;18.90;;;11.20;;
64907;SDS011;64365;-1.756;110.040;2023-01-23T04:03:21;25.17;;;13.32;;
64907;SDS011;64365;-1.756;110.040;2023-01-23T04:05:49;18.48;;;11.05;;
64907;SDS011;64365;-1.756;110.040;2023-01-23T04:08:20;23.38;;;12.75;;
64907;SDS011;64365;-1.756;110.040;2023-01-23T04:10:47;22.17;;;12.27;;
64907;SDS011;64365;-1.756;110.040;2023-01-23T04:13:14;21.15;;;11.50;;
64907;SDS011;64365;-1.756;110.040;2023-01-23T04:15:41;23.70;;;10.75;;
64907;SDS011;64365;-1.756;110.040;2023-01-23T04:18:09;23.52;;;12.65;;
64907;SDS011;64365;-1.756;110.040;2023-01-23T04:20:35;19.35;;;12.73;;
64907;SDS011;64365;-1.756;110.040;2023-01-23T04:23:03;22.23;;;11.23;;
64907;SDS011;64365;-1.756;110.040;2023-01-23T04:25:30;18.65;;;11.43;;
64907;SDS011;64365;-1.756;110.040;2023-01-23T04:27:56;18.30;;;10.85;;
64907;SDS011;64365;-1.756;110.040;2023-01-23T04:30:22;21.60;;;11.15;;
64907;SDS011;64365;-1.756;110.040;2023-01-23T04:32:49;19.48;;;11.65;;
64907;SDS011;64365;-1.756;110.040;2023-01-23T04:35:16;26.10;;;12.55;;
64907;SDS011;64365;-1.756;110.040;2023-01-23T04:37:42;16.73;;;10.75;;
64907;SDS011;64365;-1.756;110.040;2023-01-23T04:40:11;24.80;;;12.82;;
64907;SDS011;64365;-1.756;110.040;2023-01-23T04:42:38;20.90;;;11.80;;
64907;SDS011;64365;-1.756;110.040;2023-01-23T04:45:05;22.55;;;12.93;;
64907;SDS011;64365;-1.756;110.040;2023-01-23T04:47:32;25.63;;;11.80;;
64907;SDS011;64365;-1.756;110.040;2023-01-23T04:49:59;22.50;;;12.23;;
64907;SDS011;64365;-1.756;110.040;2023-01-23T04:52:26;22.00;;;12.77;;
64907;SDS011;64365;-1.756;110.040;2023-01-23T04:54:53;22.35;;;12.60;;
64907;SDS011;64365;-1.756;110.040;2023-01-23T04:57:21;24.83;;;11.73;;
64907;SDS011;64365;-1.756;110.040;2023-01-23T04:59:47;27.02;;;12.35;;
64907;SDS011;64365;-1.756;110.040;2023-01-23T05:02:14;23.02;;;13.10;;
64907;SDS011;64365;-1.756;110.040;2023-01-23T05:04:41;22.90;;;12.77;;
64907;SDS011;64365;-1.756;110.040;2023-01-23T05:07:07;27.40;;;13.90;;
64907;SDS011;64365;-1.756;110.040;2023-01-23T05:09:36;25.15;;;13.02;;
64907;SDS011;64365;-1.756;110.040;2023-01-23T05:12:02;23.15;;;12.98;;
64907;SDS011;64365;-1.756;110.040;2023-01-23T05:14:31;19.17;;;12.02;;
64907;SDS011;64365;-1.756;110.040;2023-01-23T05:16:57;20.35;;;12.23;;
64907;SDS011;64365;-1.756;110.040;2023-01-23T05:19:24;22.25;;;11.38;;
64907;SDS011;64365;-1.756;110.040;2023-01-23T05:21:50;18.40;;;11.82;;
64907;SDS011;64365;-1.756;110.040;2023-01-23T05:24:17;19.45;;;12.18;;
64907;SDS011;64365;-1.756;110.040;2023-01-23T05:26:44;22.65;;;12.23;;
64907;SDS011;64365;-1.756;110.040;2023-01-23T05:29:10;21.58;;;13.45;;
64907;SDS011;64365;-1.756;110.040;2023-01-23T05:31:38;36.95;;;13.65;;
64907;SDS011;64365;-1.756;110.040;2023-01-23T05:34:05;22.05;;;13.52;;
64907;SDS011;64365;-1.756;110.040;2023-01-23T05:36:31;21.02;;;13.38;;
64907;SDS011;64365;-1.756;110.040;2023-01-23T05:38:58;25.80;;;13.38;;
64907;SDS011;64365;-1.756;110.040;2023-01-23T05:41:24;23.20;;;12.73;;
64907;SDS011;64365;-1.756;110.040;2023-01-23T05:43:51;19.60;;;12.85;;
64907;SDS011;64365;-1.756;110.040;2023-01-23T05:46:17;22.40;;;12.65;;
64907;SDS011;64365;-1.756;110.040;2023-01-23T05:48:48;24.65;;;13.10;;
64907;SDS011;64365;-1.756;110.040;2023-01-23T05:51:15;20.33;;;12.48;;
64907;SDS011;64365;-1.756;110.040;2023-01-23T05:53:42;24.45;;;12.90;;
64907;SDS011;64365;-1.756;110.040;2023-01-23T05:56:09;23.77;;;12.60;;
64907;SDS011;64365;-1.756;110.040;2023-01-23T05:58:35;23.98;;;12.85;;
64907;SDS011;64365;-1.756;110.040;2023-01-23T06:01:02;22.67;;;13.55;;
64907;SDS011;64365;-1.756;110.040;2023-01-23T06:03:29;21.63;;;13.40;;
64907;SDS011;64365;-1.756;110.040;2023-01-23T06:05:57;25.45;;;13.07;;
64907;SDS011;64365;-1.756;110.040;2023-01-23T06:08:26;22.80;;;11.75;;
64907;SDS011;64365;-1.756;110.040;2023-01-23T06:10:52;28.20;;;12.40;;
64907;SDS011;64365;-1.756;110.040;2023-01-23T06:13:22;21.55;;;12.60;;
64907;SDS011;64365;-1.756;110.040;2023-01-23T06:15:49;26.85;;;13.88;;
64907;SDS011;64365;-1.756;110.040;2023-01-23T06:18:15;20.75;;;12.32;;
64907;SDS011;64365;-1.756;110.040;2023-01-23T06:20:42;22.83;;;11.88;;
64907;SDS011;64365;-1.756;110.040;2023-01-23T06:23:10;25.35;;;14.18;;
64907;SDS011;64365;-1.756;110.040;2023-01-23T06:25:36;19.33;;;12.15;;
64907;SDS011;64365;-1.756;110.040;2023-01-23T06:28:03;30.33;;;13.38;;
64907;SDS011;64365;-1.756;110.040;2023-01-23T06:30:30;26.17;;;12.85;;
64907;SDS011;64365;-1.756;110.040;2023-01-23T06:32:58;26.38;;;13.38;;
64907;SDS011;64365;-1.756;110.040;2023-01-23T06:35:25;21.83;;;12.45;;
64907;SDS011;64365;-1.756;110.040;2023-01-23T06:37:52;29.52;;;13.85;;
64907;SDS011;64365;-1.756;110.040;2023-01-23T06:40:19;24.67;;;13.02;;
64907;SDS011;64365;-1.756;110.040;2023-01-23T06:42:46;32.88;;;14.80;;
64907;SDS011;64365;-1.756;110.040;2023-01-23T06:45:13;25.90;;;14.05;;
64907;SDS011;64365;-1.756;110.040;2023-01-23T06:47:39;23.40;;;13.52;;
64907;SDS011;64365;-1.756;110.040;2023-01-23T06:50:06;21.63;;;13.65;;
64907;SDS011;64365;-1.756;110.040;2023-01-23T06:52:34;21.17;;;13.32;;
64907;SDS011;64365;-1.756;110.040;2023-01-23T06:55:00;21.45;;;12.90;;
64907;SDS011;64365;-1.756;110.040;2023-01-23T06:57:28;24.23;;;13.57;;
64907;SDS011;64365;-1.756;110.040;2023-01-23T06:59:54;29.45;;;13.27;;
64907;SDS011;64365;-1.756;110.040;2023-01-23T07:02:21;19.67;;;12.57;;
64907;SDS011;64365;-1.756;110.040;2023-01-23T07:04:48;20.58;;;12.93;;
64907;SDS011;64365;-1.756;110.040;2023-01-23T07:07:14;26.77;;;12.75;;
64907;SDS011;64365;-1.756;110.040;2023-01-23T07:09:41;29.20;;;14.70;;
64907;SDS011;64365;-1.756;110.040;2023-01-23T07:12:08;22.25;;;12.27;;
64907;SDS011;64365;-1.756;110.040;2023-01-23T07:14:36;23.05;;;12.57;;
64907;SDS011;64365;-1.756;110.040;2023-01-23T07:17:02;25.48;;;13.95;;
64907;SDS011;64365;-1.756;110.040;2023-01-23T07:19:29;24.25;;;13.02;;
64907;SDS011;64365;-1.756;110.040;2023-01-23T07:21:56;21.45;;;11.95;;
64907;SDS011;64365;-1.756;110.040;2023-01-23T07:24:22;20.25;;;10.73;;
64907;SDS011;64365;-1.756;110.040;2023-01-23T07:26:49;21.20;;;12.13;;
64907;SDS011;64365;-1.756;110.040;2023-01-23T07:29:15;25.67;;;12.88;;
64907;SDS011;64365;-1.756;110.040;2023-01-23T07:31:43;21.92;;;13.55;;
64907;SDS011;64365;-1.756;110.040;2023-01-23T07:34:10;18.42;;;11.85;;
64907;SDS011;64365;-1.756;110.040;2023-01-23T07:36:36;22.90;;;12.93;;
64907;SDS011;64365;-1.756;110.040;2023-01-23T07:39:03;26.33;;;13.50;;
64907;SDS011;64365;-1.756;110.040;2023-01-23T07:41:29;21.33;;;12.57;;
64907;SDS011;64365;-1.756;110.040;2023-01-23T07:43:56;21.98;;;12.93;;
64907;SDS011;64365;-1.756;110.040;2023-01-23T07:46:22;21.67;;;12.65;;
64907;SDS011;64365;-1.756;110.040;2023-01-23T07:48:52;24.83;;;14.10;;
64907;SDS011;64365;-1.756;110.040;2023-01-23T07:51:20;23.05;;;14.07;;
64907;SDS011;64365;-1.756;110.040;2023-01-23T07:53:46;24.00;;;14.60;;
64907;SDS011;64365;-1.756;110.040;2023-01-23T07:56:13;23.00;;;13.60;;
64907;SDS011;64365;-1.756;110.040;2023-01-23T07:58:39;25.10;;;13.77;;
64907;SDS011;64365;-1.756;110.040;2023-01-23T08:01:06;26.90;;;12.65;;
64907;SDS011;64365;-1.756;110.040;2023-01-23T08:03:34;21.27;;;12.23;;
64907;SDS011;64365;-1.756;110.040;2023-01-23T08:06:02;23.23;;;14.30;;
64907;SDS011;64365;-1.756;110.040;2023-01-23T08:08:29;29.88;;;14.05;;
64907;SDS011;64365;-1.756;110.040;2023-01-23T08:10:56;23.67;;;14.45;;
64907;SDS011;64365;-1.756;110.040;2023-01-23T08:13:22;27.25;;;14.27;;
64907;SDS011;64365;-1.756;110.040;2023-01-23T08:15:50;28.05;;;14.80;;
64907;SDS011;64365;-1.756;110.040;2023-01-23T08:18:18;27.80;;;13.18;;
64907;SDS011;64365;-1.756;110.040;2023-01-23T08:20:51;30.23;;;15.48;;
64907;SDS011;64365;-1.756;110.040;2023-01-23T08:23:19;27.88;;;15.00;;
64907;SDS011;64365;-1.756;110.040;2023-01-23T08:25:46;22.50;;;13.70;;
64907;SDS011;64365;-1.756;110.040;2023-01-23T08:28:17;24.77;;;14.38;;
64907;SDS011;64365;-1.756;110.040;2023-01-23T08:30:44;26.10;;;15.45;;
64907;SDS011;64365;-1.756;110.040;2023-01-23T08:33:10;25.00;;;14.10;;
64907;SDS011;64365;-1.756;110.040;2023-01-23T08:35:37;25.00;;;15.02;;
64907;SDS011;64365;-1.756;110.040;2023-01-23T08:38:04;24.15;;;13.18;;
64907;SDS011;64365;-1.756;110.040;2023-01-23T08:40:33;22.80;;;14.27;;
64907;SDS011;64365;-1.756;110.040;2023-01-23T08:43:00;24.48;;;14.40;;
64907;SDS011;64365;-1.756;110.040;2023-01-23T08:45:26;28.60;;;13.77;;
64907;SDS011;64365;-1.756;110.040;2023-01-23T08:47:53;24.00;;;13.82;;
64907;SDS011;64365;-1.756;110.040;2023-01-23T08:50:21;21.60;;;14.05;;
64907;SDS011;64365;-1.756;110.040;2023-01-23T08:52:47;23.00;;;14.15;;
64907;SDS011;64365;-1.756;110.040;2023-01-23T08:55:14;24.48;;;15.18;;
64907;SDS011;64365;-1.756;110.040;2023-01-23T08:57:42;25.20;;;14.15;;
64907;SDS011;64365;-1.756;110.040;2023-01-23T09:00:09;25.65;;;15.32;;
64907;SDS011;64365;-1.756;110.040;2023-01-23T09:02:36;25.50;;;15.15;;
64907;SDS011;64365;-1.756;110.040;2023-01-23T09:05:03;25.20;;;15.07;;
64907;SDS011;64365;-1.756;110.040;2023-01-23T09:07:30;27.55;;;14.15;;
64907;SDS011;64365;-1.756;110.040;2023-01-23T09:10:00;55.95;;;17.75;;
64907;SDS011;64365;-1.756;110.040;2023-01-23T09:12:26;23.83;;;15.63;;
64907;SDS011;64365;-1.756;110.040;2023-01-23T09:14:54;27.90;;;16.33;;
64907;SDS011;64365;-1.756;110.040;2023-01-23T09:17:21;25.95;;;14.30;;
64907;SDS011;64365;-1.756;110.040;2023-01-23T09:19:48;25.13;;;14.13;;
64907;SDS011;64365;-1.756;110.040;2023-01-23T09:22:14;26.83;;;15.10;;
64907;SDS011;64365;-1.756;110.040;2023-01-23T09:24:41;28.63;;;15.15;;
64907;SDS011;64365;-1.756;110.040;2023-01-23T09:27:07;25.75;;;13.80;;
64907;SDS011;64365;-1.756;110.040;2023-01-23T09:29:34;24.00;;;15.05;;
64907;SDS011;64365;-1.756;110.040;2023-01-23T09:32:02;25.15;;;13.52;;
64907;SDS011;64365;-1.756;110.040;2023-01-23T09:34:29;25.50;;;14.35;;
64907;SDS011;64365;-1.756;110.040;2023-01-23T09:36:56;26.20;;;14.90;;
64907;SDS011;64365;-1.756;110.040;2023-01-23T09:39:22;24.63;;;12.93;;
64907;SDS011;64365;-1.756;110.040;2023-01-23T09:41:49;27.30;;;15.55;;
64907;SDS011;64365;-1.756;110.040;2023-01-23T09:44:17;23.85;;;13.88;;
64907;SDS011;64365;-1.756;110.040;2023-01-23T09:46:48;24.80;;;15.25;;
64907;SDS011;64365;-1.756;110.040;2023-01-23T09:49:19;23.60;;;13.35;;
64907;SDS011;64365;-1.756;110.040;2023-01-23T09:51:53;33.08;;;15.25;;
64907;SDS011;64365;-1.756;110.040;2023-01-23T09:54:32;24.33;;;15.65;;
64907;SDS011;64365;-1.756;110.040;2023-01-23T09:57:10;22.50;;;13.97;;
64907;SDS011;64365;-1.756;110.040;2023-01-23T09:59:39;25.80;;;16.17;;
64907;SDS011;64365;-1.756;110.040;2023-01-23T10:02:12;29.05;;;16.52;;
64907;SDS011;64365;-1.756;110.040;2023-01-23T10:04:45;27.25;;;16.15;;
64907;SDS011;64365;-1.756;110.040;2023-01-23T10:07:16;25.88;;;15.82;;
64907;SDS011;64365;-1.756;110.040;2023-01-23T10:09:59;28.35;;;14.68;;
64907;SDS011;64365;-1.756;110.040;2023-01-23T10:12:38;24.60;;;15.45;;
64907;SDS011;64365;-1.756;110.040;2023-01-23T10:15:16;25.90;;;15.50;;
64907;SDS011;64365;-1.756;110.040;2023-01-23T10:17:50;21.15;;;12.98;;
64907;SDS011;64365;-1.756;110.040;2023-01-23T10:23:34;24.45;;;15.68;;
64907;SDS011;64365;-1.756;110.040;2023-01-23T10:26:11;27.50;;;16.73;;
64907;SDS011;64365;-1.756;110.040;2023-01-23T10:28:43;28.48;;;13.90;;
64907;SDS011;64365;-1.756;110.040;2023-01-23T10:31:16;24.33;;;14.20;;
64907;SDS011;64365;-1.756;110.040;2023-01-23T10:33:50;21.90;;;14.18;;
64907;SDS011;64365;-1.756;110.040;2023-01-23T10:36:24;23.58;;;14.05;;
64907;SDS011;64365;-1.756;110.040;2023-01-23T10:38:56;21.80;;;13.38;;
64907;SDS011;64365;-1.756;110.040;2023-01-23T10:41:25;26.63;;;14.70;;
64907;SDS011;64365;-1.756;110.040;2023-01-23T10:43:53;24.92;;;15.57;;
64907;SDS011;64365;-1.756;110.040;2023-01-23T10:46:21;21.63;;;14.10;;
64907;SDS011;64365;-1.756;110.040;2023-01-23T10:48:52;19.02;;;12.27;;
64907;SDS011;64365;-1.756;110.040;2023-01-23T10:54:14;25.80;;;14.57;;
64907;SDS011;64365;-1.756;110.040;2023-01-23T10:56:49;22.52;;;14.95;;
64907;SDS011;64365;-1.756;110.040;2023-01-23T10:59:24;22.05;;;14.35;;
64907;SDS011;64365;-1.756;110.040;2023-01-23T11:01:58;20.77;;;13.40;;
64907;SDS011;64365;-1.756;110.040;2023-01-23T11:04:28;20.60;;;13.68;;
64907;SDS011;64365;-1.756;110.040;2023-01-23T11:07:04;20.73;;;13.38;;
64907;SDS011;64365;-1.756;110.040;2023-01-23T11:09:43;24.00;;;14.52;;
64907;SDS011;64365;-1.756;110.040;2023-01-23T11:12:14;20.40;;;13.43;;
64907;SDS011;64365;-1.756;110.040;2023-01-23T11:14:43;20.20;;;12.98;;
64907;SDS011;64365;-1.756;110.040;2023-01-23T11:17:15;18.08;;;12.05;;
64907;SDS011;64365;-1.756;110.040;2023-01-23T11:19:45;17.17;;;11.15;;
64907;SDS011;64365;-1.756;110.040;2023-01-23T11:22:28;16.75;;;12.55;;
64907;SDS011;64365;-1.756;110.040;2023-01-23T11:24:57;19.57;;;13.73;;
64907;SDS011;64365;-1.756;110.040;2023-01-23T11:27:24;19.25;;;12.80;;
64907;SDS011;64365;-1.756;110.040;2023-01-23T11:32:49;20.80;;;12.15;;
64907;SDS011;64365;-1.756;110.040;2023-01-23T11:35:23;19.33;;;12.40;;
64907;SDS011;64365;-1.756;110.040;2023-01-23T11:38:01;20.92;;;13.70;;
64907;SDS011;64365;-1.756;110.040;2023-01-23T11:40:30;19.65;;;13.10;;
64907;SDS011;64365;-1.756;110.040;2023-01-23T11:42:56;19.50;;;12.88;;
64907;SDS011;64365;-1.756;110.040;2023-01-23T11:45:32;19.02;;;12.38;;
64907;SDS011;64365;-1.756;110.040;2023-01-23T11:48:17;18.92;;;12.18;;
64907;SDS011;64365;-1.756;110.040;2023-01-23T11:51:02;20.33;;;11.32;;
64907;SDS011;64365;-1.756;110.040;2023-01-23T11:53:39;16.60;;;11.52;;
64907;SDS011;64365;-1.756;110.040;2023-01-23T11:56:35;18.73;;;11.68;;
64907;SDS011;64365;-1.756;110.040;2023-01-23T11:59:21;16.67;;;11.23;;
64907;SDS011;64365;-1.756;110.040;2023-01-23T12:02:08;16.98;;;11.25;;
64907;SDS011;64365;-1.756;110.040;2023-01-23T12:04:54;15.98;;;10.88;;
64907;SDS011;64365;-1.756;110.040;2023-01-23T12:07:33;16.20;;;10.43;;
64907;SDS011;64365;-1.756;110.040;2023-01-23T12:10:16;15.90;;;11.13;;
64907;SDS011;64365;-1.756;110.040;2023-01-23T12:13:00;12.95;;;8.95;;
64907;SDS011;64365;-1.756;110.040;2023-01-23T12:15:40;18.10;;;9.55;;
64907;SDS011;64365;-1.756;110.040;2023-01-23T12:18:16;12.63;;;8.48;;
64907;SDS011;64365;-1.756;110.040;2023-01-23T12:20:53;14.85;;;11.18;;
64907;SDS011;64365;-1.756;110.040;2023-01-23T12:23:39;13.07;;;9.57;;
64907;SDS011;64365;-1.756;110.040;2023-01-23T12:26:16;15.25;;;9.93;;
64907;SDS011;64365;-1.756;110.040;2023-01-23T12:32:02;13.50;;;8.65;;
64907;SDS011;64365;-1.756;110.040;2023-01-23T12:34:47;13.00;;;9.27;;
64907;SDS011;64365;-1.756;110.040;2023-01-23T12:37:30;11.90;;;8.88;;
64907;SDS011;64365;-1.756;110.040;2023-01-23T12:40:14;14.25;;;8.35;;
64907;SDS011;64365;-1.756;110.040;2023-01-23T12:42:49;12.20;;;8.32;;
64907;SDS011;64365;-1.756;110.040;2023-01-23T12:45:19;12.05;;;8.65;;
64907;SDS011;64365;-1.756;110.040;2023-01-23T12:47:58;14.18;;;8.18;;
64907;SDS011;64365;-1.756;110.040;2023-01-23T12:50:34;11.85;;;8.50;;
64907;SDS011;64365;-1.756;110.040;2023-01-23T12:53:06;15.65;;;8.02;;
64907;SDS011;64365;-1.756;110.040;2023-01-23T12:55:37;10.45;;;7.68;;
64907;SDS011;64365;-1.756;110.040;2023-01-23T12:58:11;11.25;;;7.88;;
64907;SDS011;64365;-1.756;110.040;2023-01-23T13:03:57;10.90;;;7.55;;
64907;SDS011;64365;-1.756;110.040;2023-01-23T13:06:32;10.90;;;7.38;;
64907;SDS011;64365;-1.756;110.040;2023-01-23T13:09:08;9.55;;;7.38;;
64907;SDS011;64365;-1.756;110.040;2023-01-23T13:11:46;9.82;;;6.75;;
64907;SDS011;64365;-1.756;110.040;2023-01-23T13:14:34;10.82;;;7.80;;
64907;SDS011;64365;-1.756;110.040;2023-01-23T13:17:22;12.25;;;7.65;;
64907;SDS011;64365;-1.756;110.040;2023-01-23T13:19:54;8.88;;;6.47;;
64907;SDS011;64365;-1.756;110.040;2023-01-23T13:23:17;9.77;;;6.57;;
64907;SDS011;64365;-1.756;110.040;2023-01-23T13:25:48;8.55;;;5.95;;
64907;SDS011;64365;-1.756;110.040;2023-01-23T13:28:38;9.20;;;6.45;;
64907;SDS011;64365;-1.756;110.040;2023-01-23T13:31:20;8.50;;;6.20;;
64907;SDS011;64365;-1.756;110.040;2023-01-23T13:33:51;9.00;;;5.90;;
64907;SDS011;64365;-1.756;110.040;2023-01-23T13:36:28;10.73;;;6.38;;
64907;SDS011;64365;-1.756;110.040;2023-01-23T13:39:02;8.85;;;5.75;;
64907;SDS011;64365;-1.756;110.040;2023-01-23T13:41:45;8.63;;;5.88;;
64907;SDS011;64365;-1.756;110.040;2023-01-23T13:44:15;7.15;;;5.45;;
64907;SDS011;64365;-1.756;110.040;2023-01-23T13:46:48;7.90;;;5.63;;
64907;SDS011;64365;-1.756;110.040;2023-01-23T13:49:24;9.13;;;5.82;;
64907;SDS011;64365;-1.756;110.040;2023-01-23T13:52:20;7.30;;;5.03;;
64907;SDS011;64365;-1.756;110.040;2023-01-23T13:55:13;6.82;;;4.75;;
64907;SDS011;64365;-1.756;110.040;2023-01-23T13:57:59;7.53;;;5.45;;
64907;SDS011;64365;-1.756;110.040;2023-01-23T14:00:27;7.85;;;6.00;;
64907;SDS011;64365;-1.756;110.040;2023-01-23T14:03:14;7.35;;;5.40;;
64907;SDS011;64365;-1.756;110.040;2023-01-23T14:06:08;8.00;;;5.57;;
64907;SDS011;64365;-1.756;110.040;2023-01-23T14:08:44;8.07;;;5.18;;
64907;SDS011;64365;-1.756;110.040;2023-01-23T14:11:12;11.23;;;6.20;;
64907;SDS011;64365;-1.756;110.040;2023-01-23T14:13:45;11.70;;;6.82;;
64907;SDS011;64365;-1.756;110.040;2023-01-23T14:16:12;8.90;;;5.95;;
64907;SDS011;64365;-1.756;110.040;2023-01-23T14:18:47;10.30;;;6.70;;
64907;SDS011;64365;-1.756;110.040;2023-01-23T14:21:17;14.98;;;6.93;;
64907;SDS011;64365;-1.756;110.040;2023-01-23T14:23:47;12.13;;;7.80;;
64907;SDS011;64365;-1.756;110.040;2023-01-23T14:26:17;10.65;;;6.53;;
64907;SDS011;64365;-1.756;110.040;2023-01-23T14:28:50;10.38;;;7.38;;
64907;SDS011;64365;-1.756;110.040;2023-01-23T14:31:22;10.82;;;7.60;;
64907;SDS011;64365;-1.756;110.040;2023-01-23T14:33:54;10.25;;;7.70;;